createdAt,value
2022-11-10T09:52:23.318Z,101570.47
2022-11-10T09:55:33.619Z,101573.78
2022-11-10T09:58:30.064Z,101563.25
2022-11-10T10:01:31.073Z,101553.88
2022-11-10T10:04:31.934Z,101541.41
2022-11-10T10:07:38.448Z,101552.97
2022-11-10T10:10:47.425Z,101552.22
2022-11-10T10:13:50.817Z,101558.16
2022-11-10T10:16:44.291Z,101546.97
2022-11-10T10:20:03.365Z,101542.44
2022-11-10T10:22:54.370Z,101555.16
2022-11-10T10:25:43.307Z,101538.84
2022-11-10T10:28:37.456Z,101536.44
2022-11-10T10:31:32.812Z,101524.31
2022-11-10T10:34:21.277Z,101540.44
2022-11-10T10:37:26.065Z,101536.91
2022-11-10T10:40:20.363Z,101517.25
2022-11-10T10:43:05.405Z,101500.00
2022-11-10T10:46:11.443Z,101511.28
2022-11-10T10:49:29.046Z,101509.97
2022-11-10T10:52:17.456Z,101511.50
2022-11-10T10:55:07.532Z,101529.41
2022-11-10T10:57:59.440Z,101528.81
2022-11-10T11:00:50.202Z,101541.59
2022-11-10T11:03:39.961Z,101551.41
2022-11-10T11:06:27.224Z,101557.13
2022-11-10T11:09:22.392Z,101562.50
2022-11-10T11:12:18.150Z,101555.69
2022-11-10T11:15:20.901Z,101554.00
2022-11-10T11:18:18.431Z,101554.81
2022-11-10T11:21:17.632Z,101569.59
2022-11-10T11:24:31.105Z,101555.84
2022-11-10T11:27:46.982Z,101559.16
2022-11-10T11:30:42.047Z,101568.59
2022-11-10T11:33:31.995Z,101571.53
2022-11-10T11:36:35.394Z,101571.53
2022-11-10T11:40:04.893Z,101562.28
2022-11-10T11:43:12.453Z,101558.97
2022-11-10T11:46:34.162Z,101563.47
2022-11-10T11:49:53.508Z,101566.06
2022-11-10T11:53:15.901Z,101575.81
2022-11-10T11:56:10.574Z,101563.66
2022-11-10T11:59:33.462Z,101591.47
2022-11-10T12:02:56.514Z,101598.13
2022-11-10T12:06:26.341Z,101583.66
2022-11-10T12:09:30.855Z,101588.91
2022-11-10T12:12:37.767Z,101582.56
2022-11-10T12:15:29.287Z,101539.59
2022-11-10T12:18:32.884Z,101555.44
2022-11-10T12:21:51.265Z,101568.16
2022-11-10T12:24:54.884Z,101597.16
2022-11-10T12:27:47.614Z,101591.19
2022-11-10T12:30:33.808Z,101597.53
2022-11-10T12:33:51.814Z,101566.53
2022-11-10T12:36:37.805Z,101560.16
2022-11-10T12:39:41.740Z,101564.78
2022-11-10T12:42:29.087Z,101554.38
2022-11-10T12:45:25.114Z,101556.72
2022-11-10T12:48:13.447Z,101557.16
2022-11-10T12:51:07.448Z,101538.25
2022-11-10T12:53:53.544Z,101546.53
2022-11-10T12:57:07.673Z,101556.91
2022-11-10T13:00:00.248Z,101565.69
2022-11-10T13:02:46.514Z,101597.69
2022-11-10T13:05:44.043Z,101613.28
2022-11-10T13:08:30.752Z,101629.97
2022-11-10T13:11:16.429Z,101610.06
2022-11-10T13:14:04.228Z,101616.28
2022-11-10T13:16:52.966Z,101600.81
2022-11-10T13:19:38.065Z,101599.72
2022-11-10T13:22:35.730Z,101613.25
2022-11-10T13:25:35.859Z,101592.69
2022-11-10T13:28:46.284Z,101602.94
2022-11-10T13:31:31.150Z,101615.56
2022-11-10T13:34:19.504Z,101594.75
2022-11-10T13:37:33.299Z,101628.34
2022-11-10T13:40:18.169Z,101623.84
2022-11-10T13:43:03.189Z,101632.41
2022-11-10T13:46:00.417Z,101630.25
2022-11-10T13:49:04.899Z,101630.78
2022-11-10T13:51:57.788Z,101647.09
2022-11-10T13:55:16.346Z,101648.03
2022-11-10T13:58:05.202Z,101663.13
2022-11-10T14:01:16.390Z,101630.19
2022-11-10T14:04:05.747Z,101616.28
2022-11-10T14:06:54.338Z,101619.44
2022-11-10T14:09:44.563Z,101562.19
2022-11-10T14:12:39.187Z,101544.97
2022-11-10T14:15:36.862Z,101583.97
2022-11-10T14:18:25.895Z,101550.53
2022-11-10T14:21:21.402Z,101559.44
2022-11-10T14:24:19.286Z,101548.44
2022-11-10T14:27:13.153Z,101569.31
2022-11-10T14:30:21.091Z,101574.13
2022-11-10T14:33:10.721Z,101569.13
2022-11-10T14:35:59.512Z,101594.91
2022-11-10T14:38:45.054Z,101593.50
2022-11-10T14:41:30.080Z,101581.25
2022-11-10T14:44:22.873Z,101594.88
2022-11-10T14:47:24.295Z,101599.63
2022-11-10T14:50:15.314Z,101579.97
2022-11-10T14:53:03.895Z,101578.84
2022-11-10T14:55:54.651Z,101606.69
2022-11-10T14:58:42.506Z,101620.63
2022-11-10T15:01:27.713Z,101636.09
2022-11-10T15:04:15.091Z,101622.78
2022-11-10T15:07:00.511Z,101642.50
2022-11-10T15:10:16.431Z,101651.81
2022-11-10T15:13:03.285Z,101656.66
2022-11-10T15:15:48.731Z,101671.41
2022-11-10T15:18:34.050Z,101678.22
2022-11-10T15:21:21.529Z,101670.28
2022-11-10T15:24:07.264Z,101676.34
2022-11-10T15:26:52.503Z,101685.59
2022-11-10T15:29:37.544Z,101686.09
2022-11-10T15:32:30.689Z,101692.13
2022-11-10T15:35:26.063Z,101696.53
2022-11-10T15:38:19.549Z,101685.69
2022-11-10T15:41:27.152Z,101701.13
2022-11-10T15:44:27.017Z,101708.03
2022-11-10T15:47:12.975Z,101703.72
2022-11-10T15:49:58.291Z,101718.09
2022-11-10T15:52:43.928Z,101720.53
2022-11-10T15:55:29.025Z,101726.53
2022-11-10T15:58:18.605Z,101728.28
2022-11-10T16:01:04.285Z,101731.66
2022-11-10T16:03:49.745Z,101736.50
2022-11-10T16:06:35.065Z,101732.31
2022-11-10T16:09:20.255Z,101733.97
2022-11-10T16:12:06.223Z,101732.88
2022-11-10T16:14:53.294Z,101750.00
2022-11-10T16:17:38.585Z,101757.81
2022-11-10T16:20:23.972Z,101760.19
2022-11-10T16:23:09.561Z,101763.47
2022-11-10T16:25:56.610Z,101769.59
2022-11-10T16:28:42.115Z,101772.22
2022-11-10T16:31:27.754Z,101763.63
2022-11-10T16:34:13.594Z,101779.03
2022-11-10T16:37:00.515Z,101803.91
2022-11-10T16:39:45.824Z,101810.06
2022-11-10T16:42:33.773Z,101812.53
2022-11-10T16:45:21.505Z,101819.50
2022-11-10T16:48:07.255Z,101834.97
2022-11-10T16:50:55.140Z,101834.13
2022-11-10T16:53:41.435Z,101832.22
2022-11-10T16:56:26.475Z,101848.75
2022-11-10T16:59:11.580Z,101862.91
2022-11-10T17:01:56.612Z,101871.19
2022-11-10T17:04:41.846Z,101864.44
2022-11-10T17:07:28.690Z,101855.91
2022-11-10T17:10:16.549Z,101858.47
2022-11-10T17:13:01.623Z,101870.41
2022-11-10T17:15:47.177Z,101879.72
2022-11-10T17:18:34.609Z,101871.34
2022-11-10T17:21:21.262Z,101866.94
2022-11-10T17:24:07.537Z,101884.03
2022-11-10T17:26:52.568Z,101894.44
2022-11-10T17:29:37.677Z,101887.25
2022-11-10T17:32:43.260Z,101886.19
2022-11-10T17:35:27.485Z,101890.00
2022-11-10T17:38:17.122Z,101891.75
2022-11-10T17:41:02.231Z,101896.91
2022-11-10T17:43:47.623Z,101900.38
2022-11-10T17:46:33.191Z,101904.72
2022-11-10T17:49:18.246Z,101896.91
2022-11-10T17:52:03.787Z,101895.81
2022-11-10T17:54:49.076Z,101890.31
2022-11-10T17:57:34.301Z,101901.41
2022-11-10T18:00:20.290Z,101893.63
2022-11-10T18:03:05.851Z,101895.31
2022-11-10T18:05:51.265Z,101898.75
2022-11-10T18:08:36.191Z,101901.41
2022-11-10T18:11:21.630Z,101902.94
2022-11-10T18:14:06.642Z,101907.19
2022-11-10T18:16:55.248Z,101921.66
2022-11-10T18:19:40.468Z,101912.03
2022-11-10T18:22:25.619Z,101915.28
2022-11-10T18:25:10.535Z,101921.25
2022-11-10T18:27:55.545Z,101930.34
2022-11-10T18:30:40.706Z,101933.19
2022-11-10T18:33:26.138Z,101932.34
2022-11-10T18:36:11.247Z,101928.81
2022-11-10T18:38:56.121Z,101922.47
2022-11-10T18:41:40.975Z,101931.16
2022-11-10T18:44:26.354Z,101923.09
2022-11-10T18:47:12.685Z,101935.72
2022-11-10T18:49:57.581Z,101938.22
2022-11-10T18:52:42.672Z,101934.47
2022-11-10T18:55:27.781Z,101938.97
2022-11-10T18:58:12.644Z,101938.88
2022-11-10T19:01:02.623Z,101942.78
2022-11-10T19:03:48.494Z,101947.00
2022-11-10T19:06:34.401Z,101942.97
2022-11-10T19:09:21.323Z,101945.00
2022-11-10T19:12:06.623Z,101944.81
2022-11-10T19:14:51.733Z,101948.38
2022-11-10T19:17:36.724Z,101948.75
2022-11-10T19:20:22.119Z,101941.72
2022-11-10T19:23:07.854Z,101950.44
2022-11-10T19:26:03.141Z,101958.19
2022-11-10T19:28:48.400Z,101957.69
2022-11-10T19:31:33.436Z,101956.59
2022-11-10T19:34:18.402Z,101952.38
2022-11-10T19:37:03.807Z,101940.88
2022-11-10T19:39:49.178Z,101947.66
2022-11-10T19:42:34.238Z,101955.34
2022-11-10T19:45:19.595Z,101958.53
2022-11-10T19:48:05.072Z,101964.47
2022-11-10T19:50:56.491Z,101969.56
2022-11-10T19:53:43.502Z,101967.03
2022-11-10T19:56:31.899Z,101967.91
2022-11-10T19:59:17.750Z,101976.50
2022-11-10T20:02:03.078Z,101979.84
2022-11-10T20:04:48.276Z,101966.50
2022-11-10T20:07:33.218Z,101974.88
2022-11-10T20:10:18.177Z,101981.00
2022-11-10T20:13:02.916Z,101986.34
2022-11-10T20:15:47.915Z,101982.72
2022-11-10T20:18:33.511Z,101965.41
2022-11-10T20:21:20.523Z,101982.88
2022-11-10T20:24:05.758Z,101986.72
2022-11-10T20:26:50.571Z,101983.28
2022-11-10T20:29:35.902Z,101987.47
2022-11-10T20:32:21.373Z,102005.69
2022-11-10T20:35:06.891Z,102006.28
2022-11-10T20:37:52.012Z,101998.66
2022-11-10T20:40:45.170Z,101997.44
2022-11-10T20:43:33.179Z,102003.56
2022-11-10T20:46:53.907Z,102005.84
2022-11-10T20:49:26.567Z,102007.41
2022-11-10T20:52:11.562Z,102005.84
2022-11-10T20:54:56.920Z,102004.81
2022-11-10T20:57:41.888Z,102014.47
2022-11-10T21:00:26.830Z,102026.00
2022-11-10T21:03:11.873Z,102016.78
2022-11-10T21:05:57.625Z,102012.38
2022-11-10T21:08:42.614Z,102010.53
2022-11-10T21:11:31.407Z,102029.50
2022-11-10T21:14:17.813Z,102026.63
2022-11-10T21:17:03.254Z,102035.78
2022-11-10T21:19:48.352Z,102041.78
2022-11-10T21:22:33.610Z,102049.88
2022-11-10T21:25:19.195Z,102040.00
2022-11-10T21:28:05.018Z,102041.50
2022-11-10T21:30:50.136Z,102047.22
2022-11-10T21:33:35.163Z,102045.44
2022-11-10T21:36:20.512Z,102050.63
2022-11-10T21:39:05.843Z,102051.00
2022-11-10T21:41:50.702Z,102056.41
2022-11-10T21:44:36.570Z,102058.09
2022-11-10T21:47:21.560Z,102063.31
2022-11-10T21:50:06.770Z,102057.19
2022-11-10T21:52:52.056Z,102062.97
2022-11-10T21:55:36.933Z,102068.34
2022-11-10T21:58:21.820Z,102064.53
2022-11-10T22:01:18.410Z,102072.59
2022-11-10T22:04:03.984Z,102086.34
2022-11-10T22:06:49.188Z,102071.03
2022-11-10T22:09:34.612Z,102065.00
2022-11-10T22:12:19.899Z,102056.38
2022-11-10T22:15:06.199Z,102048.41
2022-11-10T22:17:51.219Z,102061.31
2022-11-10T22:20:36.006Z,102059.63
2022-11-10T22:23:21.426Z,102060.44
2022-11-10T22:26:06.737Z,102056.25
2022-11-10T22:28:51.839Z,102045.19
2022-11-10T22:31:37.315Z,102056.16
2022-11-10T22:34:22.654Z,102057.81
2022-11-10T22:37:07.974Z,102057.72
2022-11-10T22:39:56.040Z,102067.81
2022-11-10T22:42:41.296Z,102059.03
2022-11-10T22:45:26.314Z,102053.69
2022-11-10T22:48:11.180Z,102060.63
2022-11-10T22:50:57.387Z,102070.13
2022-11-10T22:53:42.488Z,102062.19
2022-11-10T22:56:28.305Z,102063.94
2022-11-10T22:59:14.494Z,102053.34
2022-11-10T23:01:59.360Z,102057.47
2022-11-10T23:04:44.728Z,102057.78
2022-11-10T23:07:29.641Z,102056.44
2022-11-10T23:10:14.700Z,102075.28
2022-11-10T23:12:59.889Z,102084.81
2022-11-10T23:15:45.124Z,102082.88
2022-11-10T23:18:30.353Z,102086.28
2022-11-10T23:21:18.119Z,102080.78
2022-11-10T23:24:03.004Z,102086.66
2022-11-10T23:26:48.243Z,102084.63
2022-11-10T23:29:33.184Z,102087.56
2022-11-10T23:32:18.275Z,102101.19
2022-11-10T23:35:03.566Z,102105.00
2022-11-10T23:37:48.763Z,102107.03
2022-11-10T23:40:33.681Z,102113.94
2022-11-10T23:43:19.178Z,102113.28
2022-11-10T23:46:07.223Z,102104.59
2022-11-10T23:48:52.958Z,102107.19
2022-11-10T23:51:38.311Z,102096.19
2022-11-10T23:54:23.800Z,102089.56
2022-11-10T23:57:08.627Z,102081.28
2022-11-10T23:59:54.102Z,102082.97
